Time;durP1;ratioP1;P1;durP2;ratioP2;P2;SDS_P1;SDS_P2;PMS_P1;PMS_P2;Temp;Humidity;BMP_temperature;BMP_pressure;BME280_temperature;BME280_humidity;BME280_pressure;Samples;Min_cycle;Max_cycle;Signal;HPM_P1;HPM_P2
2023/07/06 00:01:22;;;;;;;7.47;6.77;;;14.40;99.90;;;;;;5066060;28;20197;-76
2023/07/06 00:03:49;;;;;;;6.77;6.27;;;14.40;99.90;;;;;;5066091;28;20551;-75
2023/07/06 00:06:18;;;;;;;6.90;6.40;;;14.40;99.90;;;;;;5060466;28;20277;-76
2023/07/06 00:08:45;;;;;;;7.30;6.63;;;14.30;99.90;;;;;;5066418;28;20225;-76
2023/07/06 00:11:12;;;;;;;6.90;6.30;;;14.30;99.90;;;;;;5054817;28;20193;-74
2023/07/06 00:13:40;;;;;;;7.27;6.67;;;14.30;99.90;;;;;;5069788;28;20218;-75
2023/07/06 00:16:08;;;;;;;7.23;6.63;;;14.30;99.90;;;;;;5065028;28;20226;-76
2023/07/06 00:18:35;;;;;;;7.40;6.77;;;14.30;99.90;;;;;;5057406;28;20235;-75
2023/07/06 00:21:03;;;;;;;6.83;6.33;;;14.30;99.90;;;;;;5058342;28;20619;-75
2023/07/06 00:23:31;;;;;;;7.50;6.87;;;14.30;99.90;;;;;;5063104;28;20896;-74
2023/07/06 00:25:58;;;;;;;7.30;6.70;;;14.20;99.90;;;;;;5064726;28;20244;-75
2023/07/06 00:28:28;;;;;;;7.00;6.50;;;14.20;99.90;;;;;;5063458;28;20205;-76
2023/07/06 00:30:57;;;;;;;7.30;6.67;;;14.20;99.90;;;;;;5066671;28;20206;-75
2023/07/06 00:33:26;;;;;;;7.67;7.03;;;14.20;99.90;;;;;;5068467;28;20219;-76
2023/07/06 00:35:53;;;;;;;6.93;6.43;;;14.10;99.90;;;;;;5060119;28;20221;-76
2023/07/06 00:38:23;;;;;;;6.73;6.27;;;14.10;99.90;;;;;;5058747;28;20598;-75
2023/07/06 00:40:55;;;;;;;7.60;7.00;;;14.10;99.90;;;;;;5060341;28;20200;-75
2023/07/06 00:43:25;;;;;;;6.67;6.17;;;14.10;99.90;;;;;;5054054;28;20258;-75
2023/07/06 00:45:56;;;;;;;6.37;5.97;;;14.10;99.90;;;;;;5051332;28;20252;-75
2023/07/06 00:48:28;;;;;;;6.97;6.40;;;14.00;99.90;;;;;;5059594;28;20180;-76
2023/07/06 00:50:59;;;;;;;7.50;6.90;;;14.00;99.90;;;;;;5062910;28;20676;-75
2023/07/06 00:53:32;;;;;;;7.63;7.03;;;13.90;99.90;;;;;;5060778;28;20217;-74
2023/07/06 00:56:01;;;;;;;7.07;6.47;;;13.80;99.90;;;;;;5061951;28;20203;-74
2023/07/06 00:58:34;;;;;;;4.93;3.30;;;13.80;99.90;;;;;;5069004;28;20696;-75
2023/07/06 01:01:07;;;;;;;7.50;6.90;;;13.70;99.90;;;;;;5053586;28;20198;-76
2023/07/06 01:03:44;;;;;;;6.80;6.17;;;13.70;99.90;;;;;;5049148;28;20749;-77
2023/07/06 01:06:15;;;;;;;7.57;6.97;;;13.60;99.90;;;;;;5051323;28;20295;-75
2023/07/06 01:08:42;;;;;;;7.17;6.50;;;13.50;99.90;;;;;;5062838;28;20195;-75
2023/07/06 01:11:14;;;;;;;6.83;6.33;;;13.50;99.90;;;;;;5056406;28;20195;-76
2023/07/06 01:13:47;;;;;;;5.80;5.30;;;13.40;99.90;;;;;;5045716;28;20214;-76
2023/07/06 01:16:19;;;;;;;7.03;6.23;;;13.40;99.90;;;;;;5061877;28;20200;-75
2023/07/06 01:18:51;;;;;;;7.90;7.30;;;13.40;99.90;;;;;;5067000;28;20241;-76
2023/07/06 01:21:25;;;;;;;7.20;6.50;;;13.30;99.90;;;;;;5065973;28;20195;-74
2023/07/06 01:24:10;;;;;;;7.33;6.73;;;13.30;99.90;;;;;;5057588;28;20564;-75
2023/07/06 01:27:01;;;;;;;7.90;7.00;;;13.30;99.90;;;;;;5056243;28;20205;-75
2023/07/06 01:29:50;;;;;;;6.90;6.30;;;13.20;99.90;;;;;;5068887;28;20281;-74
2023/07/06 01:32:24;;;;;;;8.40;7.70;;;13.20;99.90;;;;;;5057079;28;20218;-75
2023/07/06 01:34:58;;;;;;;9.03;8.23;;;13.10;99.90;;;;;;5060730;28;20206;-75
2023/07/06 01:37:30;;;;;;;7.77;7.10;;;13.10;99.90;;;;;;5064809;28;20221;-75
2023/07/06 01:40:00;;;;;;;7.93;7.30;;;13.10;99.90;;;;;;5057007;28;20202;-75
2023/07/06 01:42:30;;;;;;;8.27;7.67;;;13.10;99.90;;;;;;5053242;28;20226;-76
2023/07/06 01:45:02;;;;;;;7.50;6.90;;;13.00;99.90;;;;;;5063298;28;20252;-75
2023/07/06 01:47:33;;;;;;;7.27;6.77;;;13.00;99.90;;;;;;5062526;28;20270;-75
2023/07/06 01:50:02;;;;;;;7.70;7.03;;;13.00;99.90;;;;;;5049643;28;20195;-75
2023/07/06 01:52:52;;;;;;;8.20;7.60;;;12.90;99.90;;;;;;5045694;28;20688;-76
2023/07/06 01:55:26;;;;;;;8.23;7.53;;;12.90;99.90;;;;;;5046082;28;20203;-75
2023/07/06 01:58:09;;;;;;;8.23;7.53;;;12.90;99.90;;;;;;5054303;28;20224;-75
2023/07/06 02:00:41;;;;;;;8.90;8.10;;;12.80;99.90;;;;;;5058024;28;20697;-75
2023/07/06 02:03:09;;;;;;;7.90;7.37;;;12.80;99.90;;;;;;5059925;28;20221;-75
2023/07/06 02:05:39;;;;;;;8.27;7.67;;;12.80;99.90;;;;;;5066035;28;20202;-75
2023/07/06 02:08:08;;;;;;;8.87;8.27;;;12.70;99.90;;;;;;5060134;28;20573;-76
2023/07/06 02:10:35;;;;;;;8.33;7.70;;;12.70;99.90;;;;;;5062538;28;20835;-77
2023/07/06 02:13:03;;;;;;;7.53;6.93;;;12.60;99.90;;;;;;5061869;28;20222;-75
2023/07/06 02:15:31;;;;;;;8.40;7.70;;;12.60;99.90;;;;;;5066705;28;20202;-76
2023/07/06 02:17:58;;;;;;;7.57;7.03;;;12.60;99.90;;;;;;5070236;28;20233;-76
2023/07/06 02:20:26;;;;;;;9.50;8.80;;;12.60;99.90;;;;;;5063450;28;20658;-74
2023/07/06 02:22:53;;;;;;;8.70;8.10;;;12.60;99.90;;;;;;5067754;28;20218;-75
2023/07/06 02:25:22;;;;;;;8.13;7.40;;;12.50;99.90;;;;;;5067244;28;20222;-75
2023/07/06 02:27:49;;;;;;;8.83;8.23;;;12.50;99.90;;;;;;5059798;28;20248;-77
2023/07/06 02:30:16;;;;;;;8.40;7.80;;;12.40;99.90;;;;;;5069140;28;20266;-79
2023/07/06 02:32:42;;;;;;;8.33;7.63;;;12.40;99.90;;;;;;5059178;28;20221;-75
2023/07/06 02:35:10;;;;;;;8.70;8.00;;;12.40;99.90;;;;;;5067990;28;20209;-76
2023/07/06 02:37:39;;;;;;;7.83;7.23;;;12.40;99.90;;;;;;5060054;28;20243;-76
2023/07/06 02:40:08;;;;;;;4.63;3.40;;;12.40;99.90;;;;;;5057902;28;20238;-76
2023/07/06 02:42:35;;;;;;;5.10;3.40;;;12.50;99.90;;;;;;5067946;28;20226;-78
2023/07/06 02:45:05;;;;;;;5.17;3.30;;;12.50;99.90;;;;;;5063585;28;20243;-77
2023/07/06 02:47:32;;;;;;;6.47;3.43;;;12.50;99.90;;;;;;5057344;28;20194;-77
2023/07/06 02:49:59;;;;;;;4.57;3.30;;;12.40;99.90;;;;;;5064882;28;20190;-77
2023/07/06 02:52:26;;;;;;;5.83;5.33;;;12.30;99.90;;;;;;5059826;28;20280;-76
2023/07/06 02:54:54;;;;;;;7.00;6.50;;;12.20;99.90;;;;;;5055438;28;20202;-78
2023/07/06 02:57:21;;;;;;;7.80;7.20;;;12.20;99.90;;;;;;5048221;28;20586;-77
2023/07/06 02:59:48;;;;;;;7.40;6.80;;;12.20;99.90;;;;;;5045691;28;20217;-76
2023/07/06 03:02:15;;;;;;;8.93;8.23;;;12.20;99.90;;;;;;5048891;28;20234;-77
2023/07/06 03:04:42;;;;;;;7.63;6.97;;;12.10;99.90;;;;;;5049580;28;20205;-77
2023/07/06 03:07:09;;;;;;;6.70;6.20;;;12.10;99.90;;;;;;5049248;28;20195;-77
2023/07/06 03:09:36;;;;;;;9.87;9.17;;;12.10;99.90;;;;;;5047387;28;20703;-78
2023/07/06 03:12:05;;;;;;;7.87;7.27;;;12.00;99.90;;;;;;5052545;28;20242;-77
2023/07/06 03:14:33;;;;;;;8.83;8.03;;;12.00;99.90;;;;;;5042790;28;20669;-78
2023/07/06 03:17:03;;;;;;;8.83;8.13;;;12.00;99.90;;;;;;5056054;28;20202;-78
2023/07/06 03:19:30;;;;;;;7.83;7.30;;;12.00;99.90;;;;;;5054992;28;20224;-77
2023/07/06 03:21:58;;;;;;;9.60;8.90;;;11.90;99.90;;;;;;5059045;28;20230;-79
2023/07/06 03:24:27;;;;;;;7.32;6.82;;;11.90;99.90;;;;;;5055511;28;20478;-76
2023/07/06 03:26:54;;;;;;;3.88;3.40;;;11.90;99.90;;;;;;5065710;28;20515;-78
2023/07/06 03:29:22;;;;;;;7.10;6.60;;;12.00;99.90;;;;;;5058782;28;20661;-77
2023/07/06 03:31:49;;;;;;;6.55;6.05;;;11.90;99.90;;;;;;5064812;28;20819;-77
2023/07/06 03:34:17;;;;;;;3.57;3.20;;;11.90;99.90;;;;;;5070346;28;20624;-77
2023/07/06 03:36:44;;;;;;;3.47;3.17;;;11.90;99.90;;;;;;5062244;28;20316;-76
2023/07/06 03:39:12;;;;;;;3.90;3.10;;;11.90;99.90;;;;;;5048281;28;20645;-75
2023/07/06 03:41:39;;;;;;;4.80;3.20;;;11.90;99.90;;;;;;5064552;28;20202;-77
2023/07/06 03:44:06;;;;;;;3.80;3.23;;;11.90;99.90;;;;;;5067875;28;20205;-77
2023/07/06 03:46:36;;;;;;;4.07;2.93;;;12.00;99.90;;;;;;5067535;28;20197;-78
2023/07/06 03:49:04;;;;;;;4.33;3.67;;;12.00;99.90;;;;;;5060357;28;20195;-74
2023/07/06 03:51:31;;;;;;;4.90;3.50;;;12.00;99.90;;;;;;5057084;28;20646;-78
2023/07/06 03:53:58;;;;;;;4.87;3.67;;;12.00;99.90;;;;;;5066379;28;20190;-76
2023/07/06 03:56:28;;;;;;;5.03;4.03;;;12.00;99.90;;;;;;5064177;28;20302;-77
2023/07/06 03:58:57;;;;;;;3.97;3.57;;;12.10;99.90;;;;;;5072561;28;20206;-76
2023/07/06 04:01:24;;;;;;;3.73;3.43;;;12.10;99.90;;;;;;5062798;28;20208;-77
2023/07/06 04:03:55;;;;;;;5.07;3.73;;;12.10;99.90;;;;;;5062429;28;20703;-77
2023/07/06 04:06:24;;;;;;;3.37;2.93;;;12.20;99.90;;;;;;5059844;28;20255;-77
2023/07/06 04:08:51;;;;;;;4.97;4.57;;;12.30;99.90;;;;;;5064588;28;20190;-77
2023/07/06 04:11:19;;;;;;;4.17;3.40;;;12.30;99.90;;;;;;5065802;28;20320;-76
2023/07/06 04:13:45;;;;;;;3.80;3.40;;;12.40;99.90;;;;;;5068659;28;20215;-76
2023/07/06 04:16:17;;;;;;;4.13;3.47;;;12.50;99.90;;;;;;5064911;28;20214;-73
2023/07/06 04:18:45;;;;;;;3.60;2.90;;;12.60;99.90;;;;;;5069794;28;20761;-78
2023/07/06 04:21:18;;;;;;;3.77;3.33;;;12.70;99.90;;;;;;5064177;28;20194;-77
2023/07/06 04:23:45;;;;;;;3.80;3.07;;;12.80;99.90;;;;;;5059187;28;20220;-76
2023/07/06 04:26:14;;;;;;;3.90;3.50;;;13.00;99.90;;;;;;5056360;28;20493;-76
2023/07/06 04:28:42;;;;;;;4.20;3.80;;;13.10;99.90;;;;;;5057138;28;20218;-77
2023/07/06 04:31:10;;;;;;;6.23;5.73;;;13.20;99.90;;;;;;5048499;28;20253;-77
2023/07/06 04:33:37;;;;;;;7.87;7.27;;;13.30;99.90;;;;;;5070720;28;20215;-78
2023/07/06 04:36:05;;;;;;;5.90;5.40;;;13.40;99.90;;;;;;5052340;28;20202;-78
2023/07/06 04:38:34;;;;;;;6.07;5.57;;;13.60;99.90;;;;;;5055827;28;20447;-75
2023/07/06 04:41:01;;;;;;;3.33;3.03;;;13.70;99.90;;;;;;5063123;28;20192;-76
2023/07/06 04:43:28;;;;;;;4.03;3.50;;;13.80;99.90;;;;;;5065654;28;20466;-78
2023/07/06 04:45:55;;;;;;;4.50;3.60;;;14.00;99.90;;;;;;5056886;28;20504;-77
2023/07/06 04:48:24;;;;;;;4.43;3.70;;;14.10;99.90;;;;;;5063645;28;20873;-76
2023/07/06 04:50:52;;;;;;;4.20;3.50;;;14.10;99.90;;;;;;5063766;28;20207;-76
2023/07/06 04:53:19;;;;;;;7.20;6.60;;;14.20;99.90;;;;;;5063601;28;20317;-77
2023/07/06 04:55:48;;;;;;;5.23;4.00;;;15.20;99.90;;;;;;5070357;28;20259;-78
2023/07/06 04:58:15;;;;;;;5.87;3.60;;;15.90;99.90;;;;;;5067559;28;20251;-78
2023/07/06 05:00:45;;;;;;;3.73;3.33;;;16.20;99.90;;;;;;5055863;28;20207;-77
2023/07/06 05:03:12;;;;;;;4.93;3.63;;;16.40;99.90;;;;;;5050370;28;20240;-76
2023/07/06 05:05:42;;;;;;;4.07;3.67;;;16.30;99.90;;;;;;5062549;28;20214;-75
2023/07/06 05:08:10;;;;;;;5.10;4.70;;;16.10;99.90;;;;;;5056035;28;20192;-76
2023/07/06 05:10:36;;;;;;;5.67;5.17;;;16.00;99.90;;;;;;5057970;28;20676;-76
2023/07/06 05:13:06;;;;;;;6.30;5.80;;;16.10;99.90;;;;;;5064525;28;20223;-76
2023/07/06 05:15:33;;;;;;;5.93;5.53;;;16.00;99.90;;;;;;5066252;28;20238;-76
2023/07/06 05:18:01;;;;;;;6.40;5.83;;;16.10;99.90;;;;;;5056763;28;20224;-76
2023/07/06 05:20:30;;;;;;;7.77;7.07;;;16.20;99.90;;;;;;5064266;28;20194;-76
2023/07/06 05:22:58;;;;;;;6.57;6.07;;;16.30;99.90;;;;;;5061364;28;20369;-76
2023/07/06 05:25:25;;;;;;;6.20;5.60;;;16.50;99.90;;;;;;5053868;28;20197;-76
2023/07/06 05:27:53;;;;;;;5.20;3.67;;;16.60;99.90;;;;;;5041355;28;20564;-76
2023/07/06 05:30:21;;;;;;;7.80;7.00;;;16.50;99.90;;;;;;5058613;28;20598;-76
2023/07/06 05:32:49;;;;;;;8.43;7.73;;;16.50;99.90;;;;;;5064100;28;20652;-76
2023/07/06 05:35:16;;;;;;;6.33;5.83;;;16.40;99.90;;;;;;5056602;28;20273;-76
2023/07/06 05:37:43;;;;;;;6.93;6.33;;;16.40;99.90;;;;;;5065840;28;20222;-76
2023/07/06 05:40:11;;;;;;;6.17;5.60;;;16.50;99.90;;;;;;5059192;28;20214;-75
2023/07/06 05:42:38;;;;;;;8.20;7.30;;;16.60;99.90;;;;;;5063883;28;20733;-75
2023/07/06 05:45:06;;;;;;;6.40;5.90;;;16.80;99.90;;;;;;5061074;28;20202;-76
2023/07/06 05:47:34;;;;;;;7.20;6.57;;;17.10;99.90;;;;;;5056730;28;20200;-77
2023/07/06 05:50:01;;;;;;;5.30;4.80;;;17.50;99.90;;;;;;5046451;28;20189;-76
2023/07/06 05:52:28;;;;;;;4.70;4.23;;;18.20;99.90;;;;;;5045466;28;20230;-76
2023/07/06 05:54:55;;;;;;;3.60;3.30;;;18.90;99.90;;;;;;5042702;28;20190;-76
2023/07/06 05:57:22;;;;;;;8.07;7.27;;;19.70;99.90;;;;;;5046588;28;20191;-76
2023/07/06 05:59:50;;;;;;;4.60;3.53;;;20.30;99.90;;;;;;5074458;28;21302;-78
2023/07/06 06:02:20;;;;;;;6.43;5.83;;;20.60;99.90;;;;;;5069141;28;20218;-78
2023/07/06 06:04:48;;;;;;;4.03;3.20;;;21.00;99.90;;;;;;5059217;28;20191;-77
2023/07/06 06:07:19;;;;;;;4.90;4.47;;;21.20;99.90;;;;;;5066300;28;20194;-78
2023/07/06 06:09:46;;;;;;;6.03;4.33;;;21.30;99.90;;;;;;5057745;28;20241;-78
2023/07/06 06:12:18;;;;;;;5.57;4.40;;;21.60;99.90;;;;;;5066551;28;20219;-78
2023/07/06 06:14:46;;;;;;;6.43;5.43;;;21.90;99.90;;;;;;5067682;28;20207;-79
2023/07/06 06:17:15;;;;;;;5.33;4.40;;;21.60;99.90;;;;;;5065653;28;20206;-79
2023/07/06 06:19:45;;;;;;;4.80;4.30;;;22.00;99.90;;;;;;5071647;28;20226;-79
2023/07/06 06:22:15;;;;;;;7.20;6.53;;;22.10;99.90;;;;;;5055860;28;20210;-75
2023/07/06 06:24:42;;;;;;;5.13;4.63;;;22.60;99.90;;;;;;5065173;28;20268;-79
2023/07/06 06:27:11;;;;;;;4.10;3.60;;;22.70;99.90;;;;;;5067136;28;20198;-78
2023/07/06 06:29:39;;;;;;;5.33;4.83;;;22.80;99.90;;;;;;5067310;28;20198;-79
2023/07/06 06:32:07;;;;;;;6.10;5.50;;;22.80;99.90;;;;;;5063345;28;20211;-78
2023/07/06 06:34:34;;;;;;;4.90;4.43;;;23.20;99.90;;;;;;5073318;28;20720;-79
2023/07/06 06:37:03;;;;;;;4.80;4.17;;;23.10;99.90;;;;;;5072251;28;20195;-78
2023/07/06 06:39:32;;;;;;;5.97;5.47;;;23.30;99.90;;;;;;5067155;28;20215;-79
2023/07/06 06:42:00;;;;;;;6.67;5.20;;;23.80;99.90;;;;;;5043533;28;20720;-79
2023/07/06 06:44:28;;;;;;;5.27;4.03;;;23.90;99.90;;;;;;5062099;28;20191;-78
2023/07/06 06:46:58;;;;;;;5.20;4.10;;;24.10;99.90;;;;;;5065859;28;20209;-78
2023/07/06 06:49:26;;;;;;;5.57;5.07;;;24.10;99.90;;;;;;5062277;28;20201;-78
2023/07/06 06:51:53;;;;;;;5.37;4.10;;;24.00;99.90;;;;;;5066354;28;20229;-79
2023/07/06 06:54:20;;;;;;;5.63;3.83;;;24.40;99.90;;;;;;5064206;28;20203;-79
2023/07/06 06:56:49;;;;;;;5.13;4.73;;;24.10;99.90;;;;;;5064612;28;20211;-77
2023/07/06 06:59:16;;;;;;;3.60;3.30;;;24.30;99.90;;;;;;5070302;28;20211;-78
2023/07/06 07:01:43;;;;;;;4.60;3.17;;;24.30;99.90;;;;;;5068913;28;20202;-76
2023/07/06 07:04:10;;;;;;;6.50;5.80;;;24.60;99.90;;;;;;5066584;28;20202;-78
2023/07/06 07:06:38;;;;;;;10.07;8.13;;;24.80;99.90;;;;;;5059035;28;20206;-77
2023/07/06 07:09:09;;;;;;;5.20;4.70;;;25.00;99.90;;;;;;5052527;28;20194;-78
2023/07/06 07:11:37;;;;;;;5.27;3.77;;;25.10;99.90;;;;;;5063253;28;20198;-79
2023/07/06 07:14:08;;;;;;;3.77;3.07;;;25.10;99.90;;;;;;5054081;28;20191;-77
2023/07/06 07:16:35;;;;;;;4.30;3.47;;;25.40;99.90;;;;;;5051919;28;20559;-76
2023/07/06 07:19:05;;;;;;;5.93;5.10;;;25.20;99.90;;;;;;5058434;28;20210;-77
2023/07/06 07:21:32;;;;;;;6.63;5.80;;;25.00;99.90;;;;;;5061726;28;20212;-75
2023/07/06 07:23:59;;;;;;;5.60;5.10;;;25.10;99.90;;;;;;5033807;28;20209;-76
2023/07/06 07:26:26;;;;;;;7.00;6.30;;;25.60;99.90;;;;;;5063648;28;20669;-76
2023/07/06 07:28:54;;;;;;;6.10;5.57;;;25.70;99.90;;;;;;5059219;28;20209;-78
2023/07/06 07:31:23;;;;;;;4.33;3.80;;;25.70;99.90;;;;;;5062956;28;20207;-78
2023/07/06 07:33:50;;;;;;;5.10;4.63;;;25.50;99.90;;;;;;5062373;28;20244;-78
2023/07/06 07:36:19;;;;;;;5.37;4.87;;;25.70;99.90;;;;;;5057019;28;20199;-80
2023/07/06 07:38:47;;;;;;;3.90;3.50;;;25.80;99.90;;;;;;5059415;28;20203;-78
2023/07/06 07:41:18;;;;;;;4.63;2.93;;;25.70;99.90;;;;;;5063867;28;20582;-78
2023/07/06 07:43:46;;;;;;;4.67;3.63;;;25.80;99.90;;;;;;5062243;28;20220;-76
2023/07/06 07:46:15;;;;;;;4.60;3.90;;;26.10;99.90;;;;;;5070929;28;20244;-78
2023/07/06 07:48:45;;;;;;;4.37;3.03;;;25.80;99.90;;;;;;5064921;28;20191;-77
2023/07/06 07:51:14;;;;;;;4.53;3.00;;;26.00;99.90;;;;;;5066875;28;20196;-78
2023/07/06 07:53:44;;;;;;;4.60;4.13;;;26.00;99.90;;;;;;5064369;28;20710;-78
2023/07/06 07:56:13;;;;;;;4.70;4.30;;;26.10;99.90;;;;;;5054160;28;20563;-76
2023/07/06 07:58:40;;;;;;;6.07;3.70;;;26.10;99.90;;;;;;5041127;28;20207;-79
2023/07/06 08:01:09;;;;;;;4.80;4.40;;;26.00;99.90;;;;;;5045926;28;20195;-79
2023/07/06 08:03:37;;;;;;;6.70;4.53;;;26.20;99.90;;;;;;5047040;28;20262;-77
2023/07/06 08:06:08;;;;;;;5.87;5.30;;;26.40;99.90;;;;;;5046831;28;20641;-79
2023/07/06 08:08:37;;;;;;;5.83;5.43;;;26.60;99.40;;;;;;5048640;28;20195;-79
2023/07/06 08:11:07;;;;;;;5.00;4.10;;;26.60;99.90;;;;;;5039695;28;20207;-79
2023/07/06 08:13:35;;;;;;;5.87;5.37;;;26.80;99.10;;;;;;5051669;28;20220;-79
2023/07/06 08:16:03;;;;;;;5.97;5.57;;;26.60;98.90;;;;;;5041529;28;20673;-78
2023/07/06 08:18:30;;;;;;;6.83;6.20;;;26.60;98.50;;;;;;5056723;28;20589;-78
2023/07/06 08:20:58;;;;;;;3.13;2.83;;;26.60;99.00;;;;;;5048053;28;20222;-80
2023/07/06 08:23:28;;;;;;;4.23;3.83;;;26.70;98.10;;;;;;5046256;28;20231;-75
2023/07/06 08:25:57;;;;;;;3.37;2.77;;;26.80;97.90;;;;;;5047267;28;20210;-76
2023/07/06 08:28:29;;;;;;;4.77;3.03;;;26.70;98.60;;;;;;5040976;28;20196;-77
2023/07/06 08:30:56;;;;;;;3.00;2.70;;;26.80;99.10;;;;;;5048118;28;20192;-79
2023/07/06 08:33:23;;;;;;;4.47;2.70;;;27.10;97.80;;;;;;5039887;28;20306;-76
2023/07/06 08:35:50;;;;;;;6.77;5.50;;;27.10;97.10;;;;;;5046673;28;20633;-76
2023/07/06 08:38:17;;;;;;;6.73;6.13;;;26.80;97.20;;;;;;5046342;28;20191;-78
2023/07/06 08:40:51;;;;;;;6.73;6.17;;;26.50;97.50;;;;;;5048515;28;20222;-76
2023/07/06 08:43:21;;;;;;;3.07;2.67;;;26.50;98.50;;;;;;5048308;28;20230;-78
2023/07/06 08:45:52;;;;;;;3.63;2.80;;;27.00;97.50;;;;;;5044285;28;20209;-75
2023/07/06 08:48:25;;;;;;;5.87;3.00;;;27.40;97.90;;;;;;5041516;28;20199;-74
2023/07/06 08:50:56;;;;;;;2.90;2.50;;;27.60;97.80;;;;;;5055340;28;20190;-77
2023/07/06 08:53:28;;;;;;;6.83;6.30;;;27.60;96.60;;;;;;5049979;28;20258;-76
2023/07/06 08:55:59;;;;;;;5.00;3.53;;;27.60;95.00;;;;;;5052308;28;20582;-77
2023/07/06 08:58:30;;;;;;;4.83;2.83;;;27.30;95.20;;;;;;5039562;28;20718;-78
2023/07/06 09:01:02;;;;;;;3.57;2.80;;;27.60;95.50;;;;;;5047549;28;20220;-77
2023/07/06 09:03:33;;;;;;;4.30;3.10;;;27.80;95.70;;;;;;5052402;28;20295;-77
2023/07/06 09:06:01;;;;;;;4.73;3.13;;;28.40;95.60;;;;;;5052326;28;20309;-77
2023/07/06 09:08:28;;;;;;;3.20;2.80;;;28.50;95.90;;;;;;5051468;28;20251;-78
2023/07/06 09:10:57;;;;;;;3.50;3.00;;;28.50;94.30;;;;;;5048056;28;20192;-78
2023/07/06 09:13:26;;;;;;;5.50;5.00;;;28.50;94.60;;;;;;5060119;28;20206;-78
2023/07/06 09:15:58;;;;;;;3.33;3.03;;;28.20;94.20;;;;;;5044815;28;20199;-78
2023/07/06 09:18:25;;;;;;;4.43;4.03;;;28.20;95.70;;;;;;5043621;28;20195;-78
2023/07/06 09:20:52;;;;;;;4.60;4.20;;;28.20;93.90;;;;;;5049984;28;20221;-78
2023/07/06 09:23:19;;;;;;;4.63;4.23;;;28.10;95.30;;;;;;5045737;28;20230;-78
2023/07/06 09:25:48;;;;;;;4.90;4.50;;;28.50;94.40;;;;;;5049194;28;20199;-77
2023/07/06 09:28:19;;;;;;;3.13;2.60;;;28.60;92.30;;;;;;5036413;28;20199;-75
2023/07/06 09:30:48;;;;;;;3.63;3.23;;;28.30;92.70;;;;;;5050566;28;20199;-77
2023/07/06 09:33:24;;;;;;;5.67;3.03;;;27.90;91.60;;;;;;5053361;28;20601;-78
2023/07/06 09:35:53;;;;;;;4.70;3.87;;;27.80;92.90;;;;;;5048418;28;20199;-77
2023/07/06 09:38:20;;;;;;;4.47;3.70;;;28.10;92.90;;;;;;5045305;28;20210;-75
2023/07/06 09:40:49;;;;;;;4.97;4.53;;;28.10;91.60;;;;;;5041397;28;20226;-76
2023/07/06 09:43:20;;;;;;;4.33;3.93;;;27.50;93.10;;;;;;5046035;28;20721;-75
2023/07/06 09:45:49;;;;;;;5.80;5.20;;;27.60;92.70;;;;;;5043623;28;20214;-76
2023/07/06 09:48:27;;;;;;;6.60;6.00;;;27.80;91.70;;;;;;5046338;28;20235;-76
2023/07/06 09:51:01;;;;;;;3.50;3.20;;;27.00;90.40;;;;;;5050702;28;20199;-76
2023/07/06 09:53:32;;;;;;;4.30;3.20;;;26.90;90.60;;;;;;5045195;28;20618;-76
2023/07/06 09:55:59;;;;;;;6.70;6.10;;;27.50;91.80;;;;;;5046825;28;20207;-76
2023/07/06 09:58:30;;;;;;;6.00;5.60;;;27.50;93.40;;;;;;5037060;28;20667;-75
2023/07/06 10:01:04;;;;;;;6.10;5.60;;;27.70;91.90;;;;;;5038442;28;20240;-76
2023/07/06 10:03:44;;;;;;;6.00;5.50;;;27.80;90.80;;;;;;5043739;28;20748;-75
2023/07/06 10:06:26;;;;;;;6.10;5.63;;;27.30;88.40;;;;;;5050420;28;20273;-75
2023/07/06 10:08:59;;;;;;;4.63;4.23;;;27.40;90.80;;;;;;5043363;28;20377;-76
2023/07/06 10:11:34;;;;;;;3.30;3.00;;;27.40;90.40;;;;;;5040778;28;20626;-75
2023/07/06 10:14:11;;;;;;;3.43;2.83;;;27.80;90.80;;;;;;5043837;28;20210;-75
2023/07/06 10:16:47;;;;;;;3.87;3.43;;;28.20;90.90;;;;;;5041098;28;20202;-74
2023/07/06 10:19:21;;;;;;;4.97;3.40;;;28.50;88.90;;;;;;5042151;28;20264;-75
2023/07/06 10:21:57;;;;;;;6.90;6.30;;;28.70;87.30;;;;;;5043803;28;20199;-75
2023/07/06 10:24:36;;;;;;;4.80;4.27;;;28.60;86.70;;;;;;5043775;28;20662;-79
2023/07/06 10:27:09;;;;;;;5.67;5.17;;;28.80;86.20;;;;;;5046912;28;20200;-78
2023/07/06 10:29:45;;;;;;;6.90;6.30;;;28.70;87.90;;;;;;5059192;28;20286;-78
2023/07/06 10:32:17;;;;;;;4.17;3.30;;;28.80;86.40;;;;;;5044251;28;20249;-77
2023/07/06 10:34:48;;;;;;;5.27;4.87;;;28.60;88.20;;;;;;5050507;28;20214;-79
2023/07/06 10:37:17;;;;;;;7.10;6.50;;;28.20;89.80;;;;;;5057619;28;20286;-78
2023/07/06 10:40:12;;;;;;;4.30;3.87;;;28.00;88.50;;;;;;5069179;28;20191;-77
2023/07/06 10:42:46;;;;;;;4.87;4.47;;;27.80;90.60;;;;;;5056940;28;20305;-76
2023/07/06 10:45:39;;;;;;;5.03;3.13;;;27.70;90.40;;;;;;5059582;28;20198;-76
2023/07/06 10:48:15;;;;;;;4.03;3.40;;;27.90;90.40;;;;;;5056212;28;20194;-75
2023/07/06 10:50:49;;;;;;;4.50;3.70;;;28.10;90.20;;;;;;5057752;28;20205;-73
2023/07/06 10:53:35;;;;;;;6.03;4.50;;;28.30;88.70;;;;;;5067645;28;20241;-76
2023/07/06 10:56:17;;;;;;;5.13;4.73;;;28.20;89.90;;;;;;5060624;28;20221;-74
2023/07/06 10:58:54;;;;;;;5.30;4.80;;;28.00;90.60;;;;;;5055672;28;20703;-76
2023/07/06 11:01:37;;;;;;;5.13;3.40;;;27.50;90.30;;;;;;5068724;28;20297;-76
2023/07/06 11:04:52;;;;;;;3.80;3.20;;;26.90;90.30;;;;;;5064439;28;20205;-76
2023/07/06 11:07:39;;;;;;;6.27;5.77;;;27.10;91.20;;;;;;5057809;28;20202;-76
2023/07/06 11:10:23;;;;;;;6.43;5.83;;;27.30;90.30;;;;;;5055456;28;20187;-76
2023/07/06 11:12:57;;;;;;;5.70;5.27;;;27.70;88.20;;;;;;5058839;28;20219;-76
2023/07/06 11:15:30;;;;;;;5.83;5.33;;;28.00;87.40;;;;;;5051359;28;20192;-75
2023/07/06 11:18:06;;;;;;;5.20;4.73;;;28.20;87.80;;;;;;5065334;28;20645;-76
2023/07/06 11:20:34;;;;;;;5.43;4.93;;;28.30;85.50;;;;;;5062507;28;20705;-76
2023/07/06 11:23:04;;;;;;;6.83;6.23;;;28.20;86.90;;;;;;5061488;28;20218;-75
2023/07/06 11:25:32;;;;;;;7.67;6.97;;;28.30;88.70;;;;;;5055503;28;20195;-76
2023/07/06 11:28:06;;;;;;;6.23;5.30;;;28.40;86.60;;;;;;5058162;28;20207;-76
2023/07/06 11:30:39;;;;;;;5.77;5.33;;;28.30;84.90;;;;;;5061374;28;20197;-75
2023/07/06 11:33:22;;;;;;;6.17;5.57;;;28.30;86.10;;;;;;5056276;28;20247;-76
2023/07/06 11:36:01;;;;;;;6.87;5.47;;;28.30;85.20;;;;;;5065848;28;20209;-76
2023/07/06 11:38:43;;;;;;;6.30;5.70;;;27.70;80.50;;;;;;5062333;28;20194;-76
2023/07/06 11:41:21;;;;;;;6.00;5.27;;;27.20;84.70;;;;;;5062660;28;20223;-76
2023/07/06 11:44:06;;;;;;;5.43;4.93;;;27.30;86.50;;;;;;5060385;28;20227;-76
2023/07/06 11:46:47;;;;;;;5.70;4.83;;;27.30;86.40;;;;;;5049575;28;20204;-75
2023/07/06 11:49:40;;;;;;;5.30;4.80;;;27.40;84.70;;;;;;5047559;28;20629;-75
2023/07/06 11:52:13;;;;;;;4.77;4.30;;;27.50;85.40;;;;;;5062029;28;20721;-76
2023/07/06 11:54:48;;;;;;;4.97;4.50;;;27.60;83.70;;;;;;5066652;28;20196;-75
2023/07/06 11:57:26;;;;;;;3.80;3.50;;;27.50;83.90;;;;;;5053621;28;20718;-76
2023/07/06 12:00:32;;;;;;;4.87;4.47;;;27.10;85.10;;;;;;5065404;28;20835;-76
2023/07/06 12:03:03;;;;;;;4.60;4.20;;;27.10;85.70;;;;;;5065771;28;20352;-76
2023/07/06 12:05:37;;;;;;;4.70;4.20;;;27.30;85.40;;;;;;5059802;28;20252;-81
2023/07/06 12:08:16;;;;;;;6.30;5.67;;;27.50;84.40;;;;;;5057410;28;20209;-79
2023/07/06 12:10:47;;;;;;;5.87;5.47;;;27.50;85.30;;;;;;5060157;28;20734;-76
2023/07/06 12:13:21;;;;;;;6.37;5.57;;;27.60;86.00;;;;;;5069948;28;20224;-78
2023/07/06 12:15:49;;;;;;;5.93;5.37;;;27.70;84.00;;;;;;5056333;28;20199;-78
2023/07/06 12:18:18;;;;;;;6.07;5.57;;;27.60;83.90;;;;;;5050158;28;20735;-78
2023/07/06 12:20:50;;;;;;;7.37;5.50;;;27.70;85.00;;;;;;5062703;28;20229;-78
2023/07/06 12:23:17;;;;;;;5.30;4.90;;;27.70;84.30;;;;;;5065384;28;20712;-79
2023/07/06 12:25:44;;;;;;;4.80;4.40;;;27.60;84.10;;;;;;5066664;28;20246;-78
2023/07/06 12:28:14;;;;;;;4.87;4.47;;;27.50;80.80;;;;;;5074192;28;20194;-79
2023/07/06 12:30:43;;;;;;;5.67;5.17;;;27.50;83.10;;;;;;5059424;28;20681;-79
2023/07/06 12:33:13;;;;;;;4.03;3.63;;;27.40;81.90;;;;;;5058467;28;20280;-79
2023/07/06 12:35:41;;;;;;;4.40;4.00;;;27.50;83.10;;;;;;5059016;28;20217;-79
2023/07/06 12:38:20;;;;;;;4.33;3.20;;;27.50;83.30;;;;;;5067556;28;20198;-79
2023/07/06 12:40:48;;;;;;;5.40;4.60;;;27.50;81.70;;;;;;5064182;28;20249;-77
2023/07/06 12:43:23;;;;;;;4.87;4.37;;;27.40;79.70;;;;;;5067366;28;20230;-78
2023/07/06 12:45:52;;;;;;;6.50;5.90;;;27.40;81.50;;;;;;5060543;28;20206;-78
2023/07/06 12:48:23;;;;;;;6.73;6.10;;;27.30;81.30;;;;;;5051615;28;20194;-77
2023/07/06 12:50:51;;;;;;;7.00;6.17;;;27.20;82.60;;;;;;5067836;28;20244;-77
2023/07/06 12:53:26;;;;;;;6.67;6.07;;;26.90;81.90;;;;;;5053290;28;20232;-77
2023/07/06 12:56:00;;;;;;;6.37;5.77;;;26.60;84.10;;;;;;5034509;28;20208;-75
2023/07/06 12:58:32;;;;;;;3.67;3.30;;;26.80;85.00;;;;;;5043801;28;20196;-77
2023/07/06 13:01:04;;;;;;;4.57;4.10;;;27.00;83.60;;;;;;5046898;28;20701;-78
2023/07/06 13:03:32;;;;;;;6.27;5.77;;;26.80;82.60;;;;;;5044468;28;20686;-77
2023/07/06 13:06:00;;;;;;;5.23;4.70;;;26.70;83.10;;;;;;5048262;28;20195;-76